sensor_id;sensor_type;location;lat;lon;timestamp;P1;durP1;ratioP1;P2;durP2;ratioP2
11496;SDS011;5805;51.542;7.230;2023-04-15T00:01:57;7.35;;;4.00;;
11496;SDS011;5805;51.542;7.230;2023-04-15T00:04:22;9.98;;;4.20;;
11496;SDS011;5805;51.542;7.230;2023-04-15T00:06:49;7.30;;;4.32;;
11496;SDS011;5805;51.542;7.230;2023-04-15T00:09:15;5.60;;;4.30;;
11496;SDS011;5805;51.542;7.230;2023-04-15T00:11:42;5.57;;;4.22;;
11496;SDS011;5805;51.542;7.230;2023-04-15T00:14:07;6.82;;;4.85;;
11496;SDS011;5805;51.542;7.230;2023-04-15T00:16:33;4.90;;;4.50;;
11496;SDS011;5805;51.542;7.230;2023-04-15T00:18:59;8.32;;;5.05;;
11496;SDS011;5805;51.542;7.230;2023-04-15T00:21:24;7.80;;;6.00;;
11496;SDS011;5805;51.542;7.230;2023-04-15T00:23:50;8.15;;;6.32;;
11496;SDS011;5805;51.542;7.230;2023-04-15T00:26:15;7.47;;;5.78;;
11496;SDS011;5805;51.542;7.230;2023-04-15T00:28:43;9.43;;;6.10;;
11496;SDS011;5805;51.542;7.230;2023-04-15T00:31:08;10.75;;;6.13;;
11496;SDS011;5805;51.542;7.230;2023-04-15T00:33:34;7.60;;;6.20;;
11496;SDS011;5805;51.542;7.230;2023-04-15T00:36:00;9.13;;;5.65;;
11496;SDS011;5805;51.542;7.230;2023-04-15T00:38:25;7.90;;;6.07;;
11496;SDS011;5805;51.542;7.230;2023-04-15T00:40:51;7.25;;;6.13;;
11496;SDS011;5805;51.542;7.230;2023-04-15T00:43:17;9.85;;;6.10;;
11496;SDS011;5805;51.542;7.230;2023-04-15T00:45:44;8.77;;;6.60;;
11496;SDS011;5805;51.542;7.230;2023-04-15T00:48:10;8.50;;;5.93;;
11496;SDS011;5805;51.542;7.230;2023-04-15T00:50:36;7.40;;;6.07;;
11496;SDS011;5805;51.542;7.230;2023-04-15T00:53:02;7.68;;;6.43;;
11496;SDS011;5805;51.542;7.230;2023-04-15T00:55:28;8.68;;;6.20;;
11496;SDS011;5805;51.542;7.230;2023-04-15T00:57:54;6.93;;;5.90;;
11496;SDS011;5805;51.542;7.230;2023-04-15T01:00:21;9.30;;;5.95;;
11496;SDS011;5805;51.542;7.230;2023-04-15T01:02:49;9.15;;;6.30;;
11496;SDS011;5805;51.542;7.230;2023-04-15T01:05:14;6.65;;;5.13;;
11496;SDS011;5805;51.542;7.230;2023-04-15T01:07:41;6.93;;;5.20;;
11496;SDS011;5805;51.542;7.230;2023-04-15T01:10:07;7.03;;;5.43;;
11496;SDS011;5805;51.542;7.230;2023-04-15T01:12:33;6.88;;;5.28;;
11496;SDS011;5805;51.542;7.230;2023-04-15T01:14:59;8.27;;;5.85;;
11496;SDS011;5805;51.542;7.230;2023-04-15T01:17:26;10.32;;;5.63;;
11496;SDS011;5805;51.542;7.230;2023-04-15T01:19:53;6.85;;;5.20;;
11496;SDS011;5805;51.542;7.230;2023-04-15T01:22:20;7.57;;;5.43;;
11496;SDS011;5805;51.542;7.230;2023-04-15T01:24:48;7.88;;;5.32;;
11496;SDS011;5805;51.542;7.230;2023-04-15T01:27:20;6.78;;;4.82;;
11496;SDS011;5805;51.542;7.230;2023-04-15T01:29:46;6.57;;;4.95;;
11496;SDS011;5805;51.542;7.230;2023-04-15T01:32:12;9.27;;;5.50;;
11496;SDS011;5805;51.542;7.230;2023-04-15T01:34:37;6.47;;;5.30;;
11496;SDS011;5805;51.542;7.230;2023-04-15T01:37:03;7.55;;;5.55;;
11496;SDS011;5805;51.542;7.230;2023-04-15T01:39:29;6.40;;;5.53;;
11496;SDS011;5805;51.542;7.230;2023-04-15T01:41:54;7.80;;;5.38;;
11496;SDS011;5805;51.542;7.230;2023-04-15T01:44:21;6.78;;;5.40;;
11496;SDS011;5805;51.542;7.230;2023-04-15T01:46:47;8.60;;;5.10;;
11496;SDS011;5805;51.542;7.230;2023-04-15T01:49:13;8.85;;;5.30;;
11496;SDS011;5805;51.542;7.230;2023-04-15T01:51:38;8.25;;;5.53;;
11496;SDS011;5805;51.542;7.230;2023-04-15T01:54:04;6.72;;;4.88;;
11496;SDS011;5805;51.542;7.230;2023-04-15T01:56:30;8.10;;;5.28;;
11496;SDS011;5805;51.542;7.230;2023-04-15T01:58:55;8.02;;;4.97;;
11496;SDS011;5805;51.542;7.230;2023-04-15T02:01:22;6.55;;;5.05;;
11496;SDS011;5805;51.542;7.230;2023-04-15T02:03:48;5.80;;;5.18;;
11496;SDS011;5805;51.542;7.230;2023-04-15T02:06:14;7.43;;;5.00;;
11496;SDS011;5805;51.542;7.230;2023-04-15T02:08:40;6.85;;;4.80;;
11496;SDS011;5805;51.542;7.230;2023-04-15T02:11:05;8.40;;;5.13;;
11496;SDS011;5805;51.542;7.230;2023-04-15T02:13:31;6.53;;;4.78;;
11496;SDS011;5805;51.542;7.230;2023-04-15T02:15:57;8.55;;;5.88;;
11496;SDS011;5805;51.542;7.230;2023-04-15T02:18:24;7.20;;;5.20;;
11496;SDS011;5805;51.542;7.230;2023-04-15T02:20:50;7.55;;;5.32;;
11496;SDS011;5805;51.542;7.230;2023-04-15T02:23:16;7.38;;;5.35;;
11496;SDS011;5805;51.542;7.230;2023-04-15T02:25:42;6.93;;;4.88;;
11496;SDS011;5805;51.542;7.230;2023-04-15T02:28:08;6.38;;;5.03;;
11496;SDS011;5805;51.542;7.230;2023-04-15T02:30:33;6.03;;;4.95;;
11496;SDS011;5805;51.542;7.230;2023-04-15T02:32:59;7.07;;;5.30;;
11496;SDS011;5805;51.542;7.230;2023-04-15T02:35:26;7.55;;;4.82;;
11496;SDS011;5805;51.542;7.230;2023-04-15T02:37:52;6.28;;;5.00;;
11496;SDS011;5805;51.542;7.230;2023-04-15T02:40:17;9.00;;;5.35;;
11496;SDS011;5805;51.542;7.230;2023-04-15T02:42:43;5.38;;;4.72;;
11496;SDS011;5805;51.542;7.230;2023-04-15T02:45:09;5.55;;;4.90;;
11496;SDS011;5805;51.542;7.230;2023-04-15T02:47:35;7.30;;;5.35;;
11496;SDS011;5805;51.542;7.230;2023-04-15T02:50:01;6.80;;;5.30;;
11496;SDS011;5805;51.542;7.230;2023-04-15T02:52:29;6.43;;;5.15;;
11496;SDS011;5805;51.542;7.230;2023-04-15T02:54:55;7.70;;;5.50;;
11496;SDS011;5805;51.542;7.230;2023-04-15T02:57:21;7.88;;;5.57;;
11496;SDS011;5805;51.542;7.230;2023-04-15T02:59:46;6.43;;;5.28;;
11496;SDS011;5805;51.542;7.230;2023-04-15T03:02:12;11.27;;;5.40;;
11496;SDS011;5805;51.542;7.230;2023-04-15T03:04:38;7.05;;;5.00;;
11496;SDS011;5805;51.542;7.230;2023-04-15T03:07:03;8.30;;;5.60;;
11496;SDS011;5805;51.542;7.230;2023-04-15T03:09:31;6.78;;;4.97;;
11496;SDS011;5805;51.542;7.230;2023-04-15T03:11:56;7.53;;;5.55;;
11496;SDS011;5805;51.542;7.230;2023-04-15T03:14:22;9.02;;;5.60;;
11496;SDS011;5805;51.542;7.230;2023-04-15T03:16:48;11.77;;;5.55;;
11496;SDS011;5805;51.542;7.230;2023-04-15T03:19:13;7.43;;;5.30;;
11496;SDS011;5805;51.542;7.230;2023-04-15T03:21:39;7.63;;;5.20;;
11496;SDS011;5805;51.542;7.230;2023-04-15T03:24:05;7.60;;;5.38;;
11496;SDS011;5805;51.542;7.230;2023-04-15T03:26:32;8.35;;;5.20;;
11496;SDS011;5805;51.542;7.230;2023-04-15T03:28:57;8.00;;;5.07;;
11496;SDS011;5805;51.542;7.230;2023-04-15T03:31:23;5.97;;;5.22;;
11496;SDS011;5805;51.542;7.230;2023-04-15T03:33:49;7.97;;;5.63;;
11496;SDS011;5805;51.542;7.230;2023-04-15T03:36:14;8.27;;;5.65;;
11496;SDS011;5805;51.542;7.230;2023-04-15T03:38:40;7.47;;;5.68;;
11496;SDS011;5805;51.542;7.230;2023-04-15T03:41:06;6.25;;;5.35;;
11496;SDS011;5805;51.542;7.230;2023-04-15T03:43:33;6.63;;;5.20;;
11496;SDS011;5805;51.542;7.230;2023-04-15T03:45:59;6.18;;;5.40;;
11496;SDS011;5805;51.542;7.230;2023-04-15T03:48:24;5.50;;;4.95;;
11496;SDS011;5805;51.542;7.230;2023-04-15T03:50:50;6.28;;;4.95;;
11496;SDS011;5805;51.542;7.230;2023-04-15T03:53:16;8.23;;;5.47;;
11496;SDS011;5805;51.542;7.230;2023-04-15T03:55:41;6.57;;;5.38;;
11496;SDS011;5805;51.542;7.230;2023-04-15T03:58:07;6.38;;;5.18;;
11496;SDS011;5805;51.542;7.230;2023-04-15T04:00:37;6.40;;;5.00;;
11496;SDS011;5805;51.542;7.230;2023-04-15T04:03:03;8.95;;;5.55;;
11496;SDS011;5805;51.542;7.230;2023-04-15T04:05:28;7.47;;;5.32;;
11496;SDS011;5805;51.542;7.230;2023-04-15T04:07:54;9.45;;;5.43;;
11496;SDS011;5805;51.542;7.230;2023-04-15T04:10:20;8.68;;;5.57;;
11496;SDS011;5805;51.542;7.230;2023-04-15T04:12:45;6.53;;;5.28;;
11496;SDS011;5805;51.542;7.230;2023-04-15T04:15:11;6.63;;;5.65;;
11496;SDS011;5805;51.542;7.230;2023-04-15T04:17:38;6.43;;;4.88;;
11496;SDS011;5805;51.542;7.230;2023-04-15T04:20:05;8.20;;;6.18;;
11496;SDS011;5805;51.542;7.230;2023-04-15T04:22:35;8.02;;;5.60;;
11496;SDS011;5805;51.542;7.230;2023-04-15T04:25:02;8.80;;;5.88;;
11496;SDS011;5805;51.542;7.230;2023-04-15T04:27:27;6.47;;;5.32;;
11496;SDS011;5805;51.542;7.230;2023-04-15T04:29:53;6.40;;;5.78;;
11496;SDS011;5805;51.542;7.230;2023-04-15T04:32:19;7.53;;;5.60;;
11496;SDS011;5805;51.542;7.230;2023-04-15T04:34:46;7.50;;;5.75;;
11496;SDS011;5805;51.542;7.230;2023-04-15T04:37:12;10.73;;;6.05;;
11496;SDS011;5805;51.542;7.230;2023-04-15T04:39:38;8.77;;;5.90;;
11496;SDS011;5805;51.542;7.230;2023-04-15T04:42:03;9.43;;;6.45;;
11496;SDS011;5805;51.542;7.230;2023-04-15T04:44:29;6.20;;;5.40;;
11496;SDS011;5805;51.542;7.230;2023-04-15T04:46:55;7.75;;;5.78;;
11496;SDS011;5805;51.542;7.230;2023-04-15T04:49:20;7.57;;;6.45;;
11496;SDS011;5805;51.542;7.230;2023-04-15T04:51:47;7.50;;;6.10;;
11496;SDS011;5805;51.542;7.230;2023-04-15T04:54:13;7.97;;;5.93;;
11496;SDS011;5805;51.542;7.230;2023-04-15T04:56:39;8.18;;;6.30;;
11496;SDS011;5805;51.542;7.230;2023-04-15T04:59:04;8.35;;;6.10;;
11496;SDS011;5805;51.542;7.230;2023-04-15T05:01:30;6.75;;;6.00;;
11496;SDS011;5805;51.542;7.230;2023-04-15T05:03:56;7.60;;;6.03;;
11496;SDS011;5805;51.542;7.230;2023-04-15T05:06:21;8.70;;;6.40;;
11496;SDS011;5805;51.542;7.230;2023-04-15T05:08:49;6.93;;;5.88;;
11496;SDS011;5805;51.542;7.230;2023-04-15T05:11:14;7.28;;;5.88;;
11496;SDS011;5805;51.542;7.230;2023-04-15T05:13:40;6.80;;;5.68;;
11496;SDS011;5805;51.542;7.230;2023-04-15T05:16:06;7.57;;;5.93;;
11496;SDS011;5805;51.542;7.230;2023-04-15T05:18:32;6.93;;;6.18;;
11496;SDS011;5805;51.542;7.230;2023-04-15T05:20:57;9.93;;;6.10;;
11496;SDS011;5805;51.542;7.230;2023-04-15T05:23:23;9.23;;;6.50;;
11496;SDS011;5805;51.542;7.230;2023-04-15T05:25:51;7.22;;;6.45;;
11496;SDS011;5805;51.542;7.230;2023-04-15T05:28:17;6.68;;;6.00;;
11496;SDS011;5805;51.542;7.230;2023-04-15T05:30:42;9.27;;;6.30;;
11496;SDS011;5805;51.542;7.230;2023-04-15T05:33:08;7.32;;;6.60;;
11496;SDS011;5805;51.542;7.230;2023-04-15T05:35:34;7.97;;;6.75;;
11496;SDS011;5805;51.542;7.230;2023-04-15T05:37:59;10.85;;;7.05;;
11496;SDS011;5805;51.542;7.230;2023-04-15T05:40:25;8.80;;;6.85;;
11496;SDS011;5805;51.542;7.230;2023-04-15T05:42:52;9.10;;;6.60;;
11496;SDS011;5805;51.542;7.230;2023-04-15T05:45:18;7.18;;;6.22;;
11496;SDS011;5805;51.542;7.230;2023-04-15T05:47:44;8.88;;;6.80;;
11496;SDS011;5805;51.542;7.230;2023-04-15T05:50:09;7.97;;;6.13;;
11496;SDS011;5805;51.542;7.230;2023-04-15T05:52:35;8.18;;;5.95;;
11496;SDS011;5805;51.542;7.230;2023-04-15T05:55:01;10.30;;;6.63;;
11496;SDS011;5805;51.542;7.230;2023-04-15T05:57:26;8.68;;;7.18;;
11496;SDS011;5805;51.542;7.230;2023-04-15T05:59:53;9.63;;;7.90;;
11496;SDS011;5805;51.542;7.230;2023-04-15T06:02:19;8.35;;;7.45;;
11496;SDS011;5805;51.542;7.230;2023-04-15T06:04:45;10.15;;;6.97;;
11496;SDS011;5805;51.542;7.230;2023-04-15T06:07:10;10.40;;;8.45;;
11496;SDS011;5805;51.542;7.230;2023-04-15T06:09:36;9.50;;;8.00;;
11496;SDS011;5805;51.542;7.230;2023-04-15T06:12:02;10.50;;;8.55;;
11496;SDS011;5805;51.542;7.230;2023-04-15T06:14:27;9.25;;;8.25;;
11496;SDS011;5805;51.542;7.230;2023-04-15T06:16:55;8.93;;;7.28;;
11496;SDS011;5805;51.542;7.230;2023-04-15T06:19:20;8.52;;;7.65;;
11496;SDS011;5805;51.542;7.230;2023-04-15T06:21:46;8.57;;;7.30;;
11496;SDS011;5805;51.542;7.230;2023-04-15T06:24:12;8.07;;;7.25;;
11496;SDS011;5805;51.542;7.230;2023-04-15T06:26:37;9.93;;;7.68;;
11496;SDS011;5805;51.542;7.230;2023-04-15T06:29:03;9.00;;;7.35;;
11496;SDS011;5805;51.542;7.230;2023-04-15T06:31:29;9.40;;;7.85;;
11496;SDS011;5805;51.542;7.230;2023-04-15T06:33:56;9.98;;;7.65;;
11496;SDS011;5805;51.542;7.230;2023-04-15T06:36:21;8.30;;;7.35;;
11496;SDS011;5805;51.542;7.230;2023-04-15T06:38:47;8.80;;;7.90;;
11496;SDS011;5805;51.542;7.230;2023-04-15T06:41:13;8.88;;;7.35;;
11496;SDS011;5805;51.542;7.230;2023-04-15T06:43:38;9.23;;;8.15;;
11496;SDS011;5805;51.542;7.230;2023-04-15T06:46:04;8.68;;;7.70;;
11496;SDS011;5805;51.542;7.230;2023-04-15T06:48:30;8.13;;;7.20;;
11496;SDS011;5805;51.542;7.230;2023-04-15T06:50:57;9.52;;;7.68;;
11496;SDS011;5805;51.542;7.230;2023-04-15T06:53:23;8.98;;;7.57;;
11496;SDS011;5805;51.542;7.230;2023-04-15T06:55:48;11.23;;;7.78;;
11496;SDS011;5805;51.542;7.230;2023-04-15T06:58:14;10.00;;;8.07;;
11496;SDS011;5805;51.542;7.230;2023-04-15T07:00:40;8.90;;;7.53;;
11496;SDS011;5805;51.542;7.230;2023-04-15T07:03:06;8.40;;;6.88;;
11496;SDS011;5805;51.542;7.230;2023-04-15T07:05:32;10.68;;;7.60;;
11496;SDS011;5805;51.542;7.230;2023-04-15T07:07:59;12.63;;;8.10;;
11496;SDS011;5805;51.542;7.230;2023-04-15T07:10:24;8.27;;;7.45;;
11496;SDS011;5805;51.542;7.230;2023-04-15T07:12:50;9.07;;;7.28;;
11496;SDS011;5805;51.542;7.230;2023-04-15T07:15:15;8.25;;;7.35;;
11496;SDS011;5805;51.542;7.230;2023-04-15T07:17:41;9.77;;;7.97;;
11496;SDS011;5805;51.542;7.230;2023-04-15T07:20:07;10.90;;;7.78;;
11496;SDS011;5805;51.542;7.230;2023-04-15T07:22:33;8.18;;;7.38;;
11496;SDS011;5805;51.542;7.230;2023-04-15T07:25:00;8.50;;;7.15;;
11496;SDS011;5805;51.542;7.230;2023-04-15T07:27:26;8.43;;;7.57;;
11496;SDS011;5805;51.542;7.230;2023-04-15T07:29:52;9.15;;;7.55;;
11496;SDS011;5805;51.542;7.230;2023-04-15T07:32:17;8.63;;;7.28;;
11496;SDS011;5805;51.542;7.230;2023-04-15T07:34:43;10.85;;;7.55;;
11496;SDS011;5805;51.542;7.230;2023-04-15T07:37:09;15.57;;;6.82;;
11496;SDS011;5805;51.542;7.230;2023-04-15T07:39:35;8.32;;;7.40;;
11496;SDS011;5805;51.542;7.230;2023-04-15T07:42:02;7.78;;;6.63;;
11496;SDS011;5805;51.542;7.230;2023-04-15T07:44:28;7.75;;;6.63;;
11496;SDS011;5805;51.542;7.230;2023-04-15T07:46:54;7.68;;;6.45;;
11496;SDS011;5805;51.542;7.230;2023-04-15T07:49:19;8.00;;;6.40;;
11496;SDS011;5805;51.542;7.230;2023-04-15T07:51:45;8.13;;;6.22;;
11496;SDS011;5805;51.542;7.230;2023-04-15T07:54:11;7.63;;;6.30;;
11496;SDS011;5805;51.542;7.230;2023-04-15T07:56:36;8.10;;;6.30;;
11496;SDS011;5805;51.542;7.230;2023-04-15T07:59:03;9.25;;;6.55;;
11496;SDS011;5805;51.542;7.230;2023-04-15T08:01:29;7.38;;;6.00;;
11496;SDS011;5805;51.542;7.230;2023-04-15T08:03:55;6.22;;;5.50;;
11496;SDS011;5805;51.542;7.230;2023-04-15T08:06:21;7.07;;;6.28;;
11496;SDS011;5805;51.542;7.230;2023-04-15T08:08:47;7.03;;;5.50;;
11496;SDS011;5805;51.542;7.230;2023-04-15T08:11:12;6.97;;;6.10;;
11496;SDS011;5805;51.542;7.230;2023-04-15T08:13:38;7.40;;;5.88;;
11496;SDS011;5805;51.542;7.230;2023-04-15T08:16:19;6.60;;;5.75;;
11496;SDS011;5805;51.542;7.230;2023-04-15T08:18:45;6.68;;;5.97;;
11496;SDS011;5805;51.542;7.230;2023-04-15T08:21:11;6.10;;;5.50;;
11496;SDS011;5805;51.542;7.230;2023-04-15T08:23:37;6.68;;;5.57;;
11496;SDS011;5805;51.542;7.230;2023-04-15T08:26:02;6.53;;;5.40;;
11496;SDS011;5805;51.542;7.230;2023-04-15T08:28:28;5.57;;;4.97;;
11496;SDS011;5805;51.542;7.230;2023-04-15T08:30:54;5.88;;;5.28;;
11496;SDS011;5805;51.542;7.230;2023-04-15T08:33:21;7.32;;;5.22;;
11496;SDS011;5805;51.542;7.230;2023-04-15T08:35:47;7.18;;;5.22;;
11496;SDS011;5805;51.542;7.230;2023-04-15T08:38:13;8.82;;;5.55;;
11496;SDS011;5805;51.542;7.230;2023-04-15T08:40:39;5.85;;;5.22;;
11496;SDS011;5805;51.542;7.230;2023-04-15T08:43:06;8.07;;;5.43;;
11496;SDS011;5805;51.542;7.230;2023-04-15T08:45:35;4.57;;;4.18;;
11496;SDS011;5805;51.542;7.230;2023-04-15T08:48:03;4.85;;;3.97;;
11496;SDS011;5805;51.542;7.230;2023-04-15T08:50:31;4.00;;;3.58;;
11496;SDS011;5805;51.542;7.230;2023-04-15T08:52:57;3.78;;;3.47;;
11496;SDS011;5805;51.542;7.230;2023-04-15T08:55:24;3.85;;;3.55;;
11496;SDS011;5805;51.542;7.230;2023-04-15T08:57:53;4.00;;;3.60;;
11496;SDS011;5805;51.542;7.230;2023-04-15T09:00:20;5.03;;;3.10;;
11496;SDS011;5805;51.542;7.230;2023-04-15T09:02:46;3.83;;;2.90;;
11496;SDS011;5805;51.542;7.230;2023-04-15T09:05:12;3.20;;;2.92;;
11496;SDS011;5805;51.542;7.230;2023-04-15T09:07:39;3.40;;;3.10;;
11496;SDS011;5805;51.542;7.230;2023-04-15T09:10:05;3.05;;;2.75;;
11496;SDS011;5805;51.542;7.230;2023-04-15T09:12:33;3.53;;;3.22;;
11496;SDS011;5805;51.542;7.230;2023-04-15T09:14:59;3.05;;;2.72;;
11496;SDS011;5805;51.542;7.230;2023-04-15T09:17:25;3.38;;;3.08;;
11496;SDS011;5805;51.542;7.230;2023-04-15T09:19:56;3.55;;;3.20;;
11496;SDS011;5805;51.542;7.230;2023-04-15T09:22:32;5.55;;;3.40;;
11496;SDS011;5805;51.542;7.230;2023-04-15T09:24:59;5.22;;;3.90;;
11496;SDS011;5805;51.542;7.230;2023-04-15T09:27:25;4.60;;;3.83;;
11496;SDS011;5805;51.542;7.230;2023-04-15T09:29:51;5.65;;;4.03;;
11496;SDS011;5805;51.542;7.230;2023-04-15T09:32:18;4.05;;;3.63;;
11496;SDS011;5805;51.542;7.230;2023-04-15T09:34:44;4.30;;;3.50;;
11496;SDS011;5805;51.542;7.230;2023-04-15T09:37:10;5.20;;;3.92;;
11496;SDS011;5805;51.542;7.230;2023-04-15T09:39:45;5.32;;;4.13;;
11496;SDS011;5805;51.542;7.230;2023-04-15T09:42:14;5.15;;;3.80;;
11496;SDS011;5805;51.542;7.230;2023-04-15T09:44:40;4.47;;;4.07;;
11496;SDS011;5805;51.542;7.230;2023-04-15T09:47:06;4.50;;;4.10;;
11496;SDS011;5805;51.542;7.230;2023-04-15T09:49:31;4.63;;;3.95;;
11496;SDS011;5805;51.542;7.230;2023-04-15T09:51:58;4.25;;;3.85;;
11496;SDS011;5805;51.542;7.230;2023-04-15T09:54:24;4.60;;;4.15;;
11496;SDS011;5805;51.542;7.230;2023-04-15T09:57:04;4.93;;;3.95;;
11496;SDS011;5805;51.542;7.230;2023-04-15T09:59:32;4.32;;;3.92;;
11496;SDS011;5805;51.542;7.230;2023-04-15T10:01:58;4.28;;;3.75;;
11496;SDS011;5805;51.542;7.230;2023-04-15T10:04:24;5.65;;;3.60;;
11496;SDS011;5805;51.542;7.230;2023-04-15T10:06:51;4.63;;;3.78;;
11496;SDS011;5805;51.542;7.230;2023-04-15T10:09:17;5.40;;;3.33;;
11496;SDS011;5805;51.542;7.230;2023-04-15T10:11:43;4.38;;;3.67;;
11496;SDS011;5805;51.542;7.230;2023-04-15T10:14:12;4.07;;;3.42;;
11496;SDS011;5805;51.542;7.230;2023-04-15T10:16:42;3.70;;;3.35;;
11496;SDS011;5805;51.542;7.230;2023-04-15T10:19:11;4.32;;;3.33;;
11496;SDS011;5805;51.542;7.230;2023-04-15T10:21:38;3.78;;;3.42;;
11496;SDS011;5805;51.542;7.230;2023-04-15T10:24:04;3.15;;;2.85;;
11496;SDS011;5805;51.542;7.230;2023-04-15T10:26:30;3.78;;;3.35;;
11496;SDS011;5805;51.542;7.230;2023-04-15T10:28:56;3.22;;;2.92;;
11496;SDS011;5805;51.542;7.230;2023-04-15T10:31:23;4.85;;;3.58;;
11496;SDS011;5805;51.542;7.230;2023-04-15T10:33:50;4.40;;;3.25;;
11496;SDS011;5805;51.542;7.230;2023-04-15T10:36:17;3.95;;;3.53;;
11496;SDS011;5805;51.542;7.230;2023-04-15T10:38:43;4.05;;;3.55;;
11496;SDS011;5805;51.542;7.230;2023-04-15T10:41:13;6.90;;;3.88;;
11496;SDS011;5805;51.542;7.230;2023-04-15T10:43:45;3.60;;;3.30;;
11496;SDS011;5805;51.542;7.230;2023-04-15T10:46:17;5.50;;;3.58;;
11496;SDS011;5805;51.542;7.230;2023-04-15T10:48:46;4.38;;;3.63;;
11496;SDS011;5805;51.542;7.230;2023-04-15T10:51:14;3.83;;;3.42;;
11496;SDS011;5805;51.542;7.230;2023-04-15T10:53:40;3.90;;;3.50;;
11496;SDS011;5805;51.542;7.230;2023-04-15T10:56:06;3.95;;;3.58;;
11496;SDS011;5805;51.542;7.230;2023-04-15T10:58:39;4.28;;;3.88;;
11496;SDS011;5805;51.542;7.230;2023-04-15T11:01:06;4.30;;;3.88;;
11496;SDS011;5805;51.542;7.230;2023-04-15T11:03:35;4.68;;;4.15;;
11496;SDS011;5805;51.542;7.230;2023-04-15T11:06:03;4.53;;;4.10;;
11496;SDS011;5805;51.542;7.230;2023-04-15T11:14:31;4.70;;;3.80;;
11496;SDS011;5805;51.542;7.230;2023-04-15T11:16:57;4.95;;;3.22;;
11496;SDS011;5805;51.542;7.230;2023-04-15T11:19:23;5.80;;;3.67;;
11496;SDS011;5805;51.542;7.230;2023-04-15T11:21:49;4.00;;;3.60;;
11496;SDS011;5805;51.542;7.230;2023-04-15T11:24:24;4.90;;;3.78;;
11496;SDS011;5805;51.542;7.230;2023-04-15T11:26:49;4.25;;;3.85;;
11496;SDS011;5805;51.542;7.230;2023-04-15T11:29:16;4.45;;;4.03;;
11496;SDS011;5805;51.542;7.230;2023-04-15T11:31:42;3.67;;;3.38;;
11496;SDS011;5805;51.542;7.230;2023-04-15T11:34:11;4.10;;;3.70;;
11496;SDS011;5805;51.542;7.230;2023-04-15T11:36:46;4.28;;;3.67;;
11496;SDS011;5805;51.542;7.230;2023-04-15T11:39:12;4.30;;;3.90;;
11496;SDS011;5805;51.542;7.230;2023-04-15T11:41:39;4.10;;;3.70;;
11496;SDS011;5805;51.542;7.230;2023-04-15T11:44:14;4.07;;;3.67;;
11496;SDS011;5805;51.542;7.230;2023-04-15T11:46:41;4.35;;;3.95;;
11496;SDS011;5805;51.542;7.230;2023-04-15T11:49:06;5.13;;;3.72;;
11496;SDS011;5805;51.542;7.230;2023-04-15T11:51:32;4.10;;;3.70;;
11496;SDS011;5805;51.542;7.230;2023-04-15T11:53:58;4.60;;;3.75;;
11496;SDS011;5805;51.542;7.230;2023-04-15T11:56:24;4.47;;;4.05;;
11496;SDS011;5805;51.542;7.230;2023-04-15T11:58:52;4.45;;;3.80;;
11496;SDS011;5805;51.542;7.230;2023-04-15T12:01:19;4.15;;;3.65;;
11496;SDS011;5805;51.542;7.230;2023-04-15T12:03:45;4.25;;;3.85;;
11496;SDS011;5805;51.542;7.230;2023-04-15T12:06:12;5.50;;;4.05;;
11496;SDS011;5805;51.542;7.230;2023-04-15T12:11:33;3.88;;;3.40;;
11496;SDS011;5805;51.542;7.230;2023-04-15T12:14:06;4.88;;;3.10;;
11496;SDS011;5805;51.542;7.230;2023-04-15T12:16:34;4.55;;;3.40;;
11496;SDS011;5805;51.542;7.230;2023-04-15T12:19:03;4.10;;;3.20;;
11496;SDS011;5805;51.542;7.230;2023-04-15T12:21:32;4.07;;;3.42;;
11496;SDS011;5805;51.542;7.230;2023-04-15T12:24:00;5.32;;;3.38;;
11496;SDS011;5805;51.542;7.230;2023-04-15T12:26:28;3.90;;;3.38;;
11496;SDS011;5805;51.542;7.230;2023-04-15T12:28:59;3.83;;;3.20;;
11496;SDS011;5805;51.542;7.230;2023-04-15T12:31:27;5.05;;;3.42;;
11496;SDS011;5805;51.542;7.230;2023-04-15T12:33:53;5.13;;;3.28;;
11496;SDS011;5805;51.542;7.230;2023-04-15T12:36:19;3.35;;;3.05;;
11496;SDS011;5805;51.542;7.230;2023-04-15T12:38:45;3.30;;;2.60;;
11496;SDS011;5805;51.542;7.230;2023-04-15T12:41:11;3.13;;;2.50;;
11496;SDS011;5805;51.542;7.230;2023-04-15T12:43:36;5.20;;;3.33;;
11496;SDS011;5805;51.542;7.230;2023-04-15T12:46:02;4.00;;;2.72;;
11496;SDS011;5805;51.542;7.230;2023-04-15T12:48:29;3.00;;;2.70;;
11496;SDS011;5805;51.542;7.230;2023-04-15T12:50:55;3.13;;;2.72;;
11496;SDS011;5805;51.542;7.230;2023-04-15T12:53:21;4.20;;;2.47;;
11496;SDS011;5805;51.542;7.230;2023-04-15T12:55:46;3.13;;;2.60;;
11496;SDS011;5805;51.542;7.230;2023-04-15T12:58:12;2.80;;;2.40;;
11496;SDS011;5805;51.542;7.230;2023-04-15T13:00:37;3.10;;;2.80;;
11496;SDS011;5805;51.542;7.230;2023-04-15T13:03:03;3.78;;;3.05;;
11496;SDS011;5805;51.542;7.230;2023-04-15T13:05:30;3.45;;;3.08;;
11496;SDS011;5805;51.542;7.230;2023-04-15T13:07:56;2.70;;;2.40;;
11496;SDS011;5805;51.542;7.230;2023-04-15T13:10:22;4.07;;;2.42;;
11496;SDS011;5805;51.542;7.230;2023-04-15T13:12:47;5.18;;;2.47;;
11496;SDS011;5805;51.542;7.230;2023-04-15T13:15:13;2.75;;;2.47;;
11496;SDS011;5805;51.542;7.230;2023-04-15T13:17:39;9.90;;;3.03;;
11496;SDS011;5805;51.542;7.230;2023-04-15T13:20:05;2.88;;;2.35;;
11496;SDS011;5805;51.542;7.230;2023-04-15T13:22:32;2.42;;;2.22;;
11496;SDS011;5805;51.542;7.230;2023-04-15T13:24:58;4.40;;;2.40;;
11496;SDS011;5805;51.542;7.230;2023-04-15T13:27:24;2.85;;;2.10;;
11496;SDS011;5805;51.542;7.230;2023-04-15T13:29:49;3.08;;;2.78;;
11496;SDS011;5805;51.542;7.230;2023-04-15T13:32:15;3.85;;;2.55;;
11496;SDS011;5805;51.542;7.230;2023-04-15T13:34:40;8.68;;;2.50;;
11496;SDS011;5805;51.542;7.230;2023-04-15T13:37:06;2.47;;;2.10;;
11496;SDS011;5805;51.542;7.230;2023-04-15T13:39:34;2.38;;;2.13;;
11496;SDS011;5805;51.542;7.230;2023-04-15T13:42:00;3.05;;;2.50;;
11496;SDS011;5805;51.542;7.230;2023-04-15T13:44:25;3.47;;;2.15;;
11496;SDS011;5805;51.542;7.230;2023-04-15T13:46:51;3.03;;;2.40;;
11496;SDS011;5805;51.542;7.230;2023-04-15T13:49:17;3.72;;;2.03;;
11496;SDS011;5805;51.542;7.230;2023-04-15T13:51:42;3.90;;;2.50;;
11496;SDS011;5805;51.542;7.230;2023-04-15T13:54:08;3.30;;;2.17;;
11496;SDS011;5805;51.542;7.230;2023-04-15T13:56:35;2.63;;;2.42;;
11496;SDS011;5805;51.542;7.230;2023-04-15T13:59:01;3.35;;;2.50;;
11496;SDS011;5805;51.542;7.230;2023-04-15T14:01:26;4.65;;;2.83;;
11496;SDS011;5805;51.542;7.230;2023-04-15T14:03:52;2.63;;;2.42;;
11496;SDS011;5805;51.542;7.230;2023-04-15T14:06:18;4.22;;;2.15;;
11496;SDS011;5805;51.542;7.230;2023-04-15T14:08:44;2.58;;;2.38;;
11496;SDS011;5805;51.542;7.230;2023-04-15T14:11:09;2.70;;;2.50;;
11496;SDS011;5805;51.542;7.230;2023-04-15T14:13:37;3.47;;;2.45;;
11496;SDS011;5805;51.542;7.230;2023-04-15T14:16:02;3.13;;;2.42;;
11496;SDS011;5805;51.542;7.230;2023-04-15T14:18:29;2.97;;;2.60;;
11496;SDS011;5805;51.542;7.230;2023-04-15T14:20:54;2.60;;;2.40;;
11496;SDS011;5805;51.542;7.230;2023-04-15T14:23:21;3.47;;;2.42;;
11496;SDS011;5805;51.542;7.230;2023-04-15T14:25:47;9.70;;;2.70;;
11496;SDS011;5805;51.542;7.230;2023-04-15T14:28:14;3.80;;;3.00;;
11496;SDS011;5805;51.542;7.230;2023-04-15T14:30:41;5.10;;;3.00;;
11496;SDS011;5805;51.542;7.230;2023-04-15T14:33:07;4.18;;;2.83;;
11496;SDS011;5805;51.542;7.230;2023-04-15T14:35:32;5.10;;;3.20;;
11496;SDS011;5805;51.542;7.230;2023-04-15T14:37:58;6.78;;;3.03;;
11496;SDS011;5805;51.542;7.230;2023-04-15T14:40:24;3.72;;;3.05;;
11496;SDS011;5805;51.542;7.230;2023-04-15T14:42:49;4.00;;;3.03;;
11496;SDS011;5805;51.542;7.230;2023-04-15T14:45:15;4.05;;;3.00;;
11496;SDS011;5805;51.542;7.230;2023-04-15T14:47:42;3.83;;;2.97;;
11496;SDS011;5805;51.542;7.230;2023-04-15T14:50:08;3.55;;;2.53;;
11496;SDS011;5805;51.542;7.230;2023-04-15T14:52:34;6.32;;;3.15;;
11496;SDS011;5805;51.542;7.230;2023-04-15T14:55:00;3.05;;;2.60;;
11496;SDS011;5805;51.542;7.230;2023-04-15T14:57:26;5.47;;;3.00;;
11496;SDS011;5805;51.542;7.230;2023-04-15T14:59:51;5.40;;;2.90;;
11496;SDS011;5805;51.542;7.230;2023-04-15T15:02:17;4.18;;;3.13;;
11496;SDS011;5805;51.542;7.230;2023-04-15T15:04:44;5.53;;;2.90;;